Weather at Dillant Hopkins Airport

Public forecast

Using degrees Fahrenheit for public forecast. Weather courtesy of forecast.io.

Current aviation weather report (METAR) for Dillant Hopkins Airport

2024/02/25 08:56 (retrieved 5 minutes ago)

KEEN 250856Z AUTO 00000KT 10SM CLR M13/M17 A3006 RMK AO2 SLP191 T11281172 53013 FZRANO

Closest aviation forecast (TAF) to Dillant Hopkins Airport

Closest forecast is Manchester-Boston Regional Airport, 36.8 nm (68.1 km) E.

2024/02/25 06:36 (retrieved 2 hours ago)

TAF KMHT 250531Z 2506/2606 33009KT P6SM FEW250 FM251600 20009KT P6SM FEW250